createdAt,value
2023-01-18T00:00:33.037Z,95213.19
2023-01-18T00:03:00.984Z,95226.19
2023-01-18T00:05:28.798Z,95228.47
2023-01-18T00:07:58.179Z,95232.28
2023-01-18T00:10:25.890Z,95228.38
2023-01-18T00:12:53.665Z,95218.31
2023-01-18T00:15:21.428Z,95207.38
2023-01-18T00:17:51.531Z,95222.66
2023-01-18T00:20:21.583Z,95223.78
2023-01-18T00:22:49.566Z,95223.56
2023-01-18T00:25:18.786Z,95230.16
2023-01-18T00:27:49.529Z,95243.88
2023-01-18T00:30:18.499Z,95239.34
2023-01-18T00:32:46.380Z,95226.91
2023-01-18T00:35:15.619Z,95216.75
2023-01-18T00:37:45.250Z,95215.22
2023-01-18T00:40:14.582Z,95224.16
2023-01-18T00:43:01.305Z,95226.91
2023-01-18T00:45:29.370Z,95233.28
2023-01-18T00:47:58.340Z,95225.59
2023-01-18T00:50:26.333Z,95234.69
2023-01-18T00:52:57.762Z,95241.47
2023-01-18T00:55:25.845Z,95232.28
2023-01-18T00:57:54.982Z,95242.19
2023-01-18T01:00:28.763Z,95232.19
2023-01-18T01:02:58.045Z,95236.41
2023-01-18T01:05:45.370Z,95236.09
2023-01-18T01:08:17.806Z,95242.25
2023-01-18T01:10:46.904Z,95243.03
2023-01-18T01:13:34.981Z,95237.56
2023-01-18T01:16:23.880Z,95244.59
2023-01-18T01:19:09.644Z,95259.28
2023-01-18T01:21:55.053Z,95268.06
2023-01-18T01:24:40.583Z,95265.25
2023-01-18T01:27:08.367Z,95259.88
2023-01-18T01:29:37.550Z,95251.44
2023-01-18T01:32:06.068Z,95245.38
2023-01-18T01:34:34.244Z,95242.31
2023-01-18T01:37:01.908Z,95252.50
2023-01-18T01:39:29.677Z,95256.53
2023-01-18T01:41:57.402Z,95251.47
2023-01-18T01:44:50.136Z,95258.69
2023-01-18T01:47:27.479Z,95266.31
2023-01-18T01:50:01.721Z,95260.44
2023-01-18T01:52:33.972Z,95261.56
2023-01-18T01:55:06.679Z,95265.50
2023-01-18T01:57:37.640Z,95267.88
2023-01-18T02:03:47.832Z,95262.50
2023-01-18T02:06:24.676Z,95256.34
2023-01-18T02:08:52.407Z,95251.75
2023-01-18T02:11:20.216Z,95249.81
2023-01-18T02:13:47.973Z,95252.00
2023-01-18T02:16:25.163Z,95248.63
2023-01-18T02:19:01.401Z,95248.63
2023-01-18T02:21:35.439Z,95252.59
2023-01-18T02:24:44.521Z,95239.69
2023-01-18T02:27:21.984Z,95245.78
2023-01-18T02:30:02.043Z,95248.06
2023-01-18T02:32:51.920Z,95254.16
2023-01-18T02:35:27.404Z,95257.31
2023-01-18T02:38:05.583Z,95249.72
2023-01-18T02:40:40.509Z,95248.16
2023-01-18T02:43:28.984Z,95251.03
2023-01-18T02:46:18.489Z,95257.31
2023-01-18T02:48:47.585Z,95264.19
2023-01-18T02:51:15.454Z,95249.72
2023-01-18T02:53:45.664Z,95256.63
2023-01-18T02:56:17.188Z,95260.44
2023-01-18T02:58:47.862Z,95260.38
2023-01-18T03:01:26.612Z,95261.91
2023-01-18T03:03:58.165Z,95256.41
2023-01-18T03:06:28.499Z,95259.53
2023-01-18T03:08:58.300Z,95258.75
2023-01-18T03:11:35.255Z,95263.78
2023-01-18T03:14:13.735Z,95260.16
2023-01-18T03:16:58.054Z,95266.75
2023-01-18T03:19:55.342Z,95265.63
2023-01-18T03:22:45.148Z,95255.06
2023-01-18T03:25:17.889Z,95268.94
2023-01-18T03:28:06.310Z,95268.28
2023-01-18T03:30:53.760Z,95271.63
2023-01-18T03:33:44.849Z,95275.47
2023-01-18T03:36:18.134Z,95274.31
2023-01-18T03:38:48.548Z,95275.47
2023-01-18T03:41:18.127Z,95274.09
2023-01-18T03:43:48.215Z,95275.94
2023-01-18T03:46:18.489Z,95269.44
2023-01-18T03:48:47.747Z,95278.75
2023-01-18T03:51:23.663Z,95282.34
2023-01-18T03:53:59.327Z,95283.59
2023-01-18T03:56:33.376Z,95294.25
2023-01-18T03:59:04.265Z,95297.22
2023-01-18T04:01:32.544Z,95294.59
2023-01-18T04:04:01.849Z,95300.28
2023-01-18T04:06:30.800Z,95291.16
2023-01-18T04:08:58.456Z,95291.91
2023-01-18T04:11:26.281Z,95305.16
2023-01-18T04:13:54.638Z,95302.91
2023-01-18T04:16:22.544Z,95309.84
2023-01-18T04:18:50.345Z,95311.75
2023-01-18T04:21:19.468Z,95310.41
2023-01-18T04:23:47.118Z,95311.88
2023-01-18T04:26:16.736Z,95317.00
2023-01-18T04:28:44.714Z,95313.84
2023-01-18T04:31:12.374Z,95314.97
2023-01-18T04:33:40.063Z,95314.97
2023-01-18T04:36:08.715Z,95319.97
2023-01-18T04:38:37.909Z,95313.44
2023-01-18T04:41:06.386Z,95313.06
2023-01-18T04:43:34.138Z,95315.31
2023-01-18T04:46:01.793Z,95306.97
2023-01-18T04:48:29.973Z,95312.38
2023-01-18T04:50:57.667Z,95314.31
2023-01-18T04:53:25.420Z,95316.16
2023-01-18T04:55:54.508Z,95321.19
2023-01-18T04:58:22.234Z,95323.03
2023-01-18T05:00:50.071Z,95330.06
2023-01-18T05:03:17.922Z,95326.06
2023-01-18T05:05:45.687Z,95337.00
2023-01-18T05:08:13.498Z,95337.97
2023-01-18T05:10:41.309Z,95335.97
2023-01-18T05:13:10.405Z,95354.50
2023-01-18T05:15:38.115Z,95353.09
2023-01-18T05:18:07.149Z,95354.81
2023-01-18T05:20:34.949Z,95359.81
2023-01-18T05:23:11.172Z,95370.91
2023-01-18T05:25:39.772Z,95363.78
2023-01-18T05:28:08.790Z,95369.56
2023-01-18T05:30:39.922Z,95367.09
2023-01-18T05:33:07.679Z,95371.78
2023-01-18T05:35:35.459Z,95368.16
2023-01-18T05:38:03.300Z,95373.75
2023-01-18T05:40:31.332Z,95380.69
2023-01-18T05:42:59.332Z,95384.75
2023-01-18T05:45:27.293Z,95383.97
2023-01-18T05:47:56.743Z,95389.72
2023-01-18T05:50:24.492Z,95389.72
2023-01-18T05:52:52.384Z,95390.31
2023-01-18T05:55:20.421Z,95392.91
2023-01-18T05:57:48.721Z,95391.88
2023-01-18T06:00:16.865Z,95398.34
2023-01-18T06:02:44.615Z,95399.97
2023-01-18T06:05:13.728Z,95405.34
2023-01-18T06:07:42.242Z,95406.78
2023-01-18T06:10:11.523Z,95403.66
2023-01-18T06:12:39.474Z,95403.66
2023-01-18T06:15:09.102Z,95411.34
2023-01-18T06:17:37.183Z,95409.50
2023-01-18T06:20:06.125Z,95413.47
2023-01-18T06:22:35.128Z,95423.97
2023-01-18T06:25:02.842Z,95431.78
2023-01-18T06:27:30.806Z,95422.56
2023-01-18T06:29:58.561Z,95424.94
2023-01-18T06:32:26.496Z,95424.28
2023-01-18T06:34:54.202Z,95427.34
2023-01-18T06:37:21.959Z,95433.16
2023-01-18T06:39:51.075Z,95432.00
2023-01-18T06:42:18.939Z,95437.50
2023-01-18T06:44:46.743Z,95436.94
2023-01-18T06:47:15.618Z,95448.22
2023-01-18T06:49:44.427Z,95457.59
2023-01-18T06:52:12.128Z,95455.88
2023-01-18T06:54:39.812Z,95464.09
2023-01-18T06:57:09.011Z,95462.53
2023-01-18T06:59:36.797Z,95461.25
2023-01-18T07:02:04.937Z,95463.59
2023-01-18T07:04:35.530Z,95482.50
2023-01-18T07:07:03.453Z,95483.09
2023-01-18T07:09:31.194Z,95495.13
2023-01-18T07:11:58.977Z,95497.28
2023-01-18T07:14:28.877Z,95500.94
2023-01-18T07:16:56.795Z,95504.06
2023-01-18T07:19:24.594Z,95507.88
2023-01-18T07:21:53.747Z,95507.31
2023-01-18T07:24:21.538Z,95514.53
2023-01-18T07:26:49.747Z,95520.06
2023-01-18T07:29:17.814Z,95518.63
2023-01-18T07:31:47.023Z,95526.16
2023-01-18T07:34:15.824Z,95527.97
2023-01-18T07:36:43.658Z,95534.34
2023-01-18T07:39:12.000Z,95539.66
2023-01-18T07:41:40.223Z,95535.75
2023-01-18T07:44:09.742Z,95538.00
2023-01-18T07:46:37.592Z,95548.84
2023-01-18T07:49:06.913Z,95542.13
2023-01-18T07:51:35.029Z,95551.03
2023-01-18T07:54:02.902Z,95557.97
2023-01-18T07:56:30.953Z,95563.19
2023-01-18T07:58:58.747Z,95565.84
2023-01-18T08:01:26.588Z,95568.16
2023-01-18T08:03:54.760Z,95572.00
2023-01-18T08:06:26.201Z,95572.25
2023-01-18T08:08:56.064Z,95568.00
2023-01-18T08:11:24.220Z,95568.56
2023-01-18T08:13:52.874Z,95573.06
2023-01-18T08:16:20.649Z,95579.22
2023-01-18T08:18:50.097Z,95582.09
2023-01-18T08:21:18.125Z,95588.31
2023-01-18T08:23:47.198Z,95592.56
2023-01-18T08:26:15.374Z,95595.53
2023-01-18T08:28:44.718Z,95601.34
2023-01-18T08:31:14.621Z,95604.47
2023-01-18T08:33:45.481Z,95609.13
2023-01-18T08:36:15.054Z,95619.03
2023-01-18T08:38:43.207Z,95618.31
2023-01-18T08:41:12.260Z,95620.56
2023-01-18T08:43:40.045Z,95624.41
2023-01-18T08:46:07.756Z,95623.50
2023-01-18T08:48:35.649Z,95625.34
2023-01-18T08:51:04.372Z,95626.28
2023-01-18T08:53:32.894Z,95630.38
2023-01-18T08:56:00.601Z,95643.09
2023-01-18T08:58:32.559Z,95647.63
2023-01-18T09:01:00.358Z,95647.63
2023-01-18T09:03:28.122Z,95646.06
2023-01-18T09:05:55.832Z,95649.19
2023-01-18T09:08:23.524Z,95649.59
2023-01-18T09:10:51.202Z,95652.72
2023-01-18T09:13:18.948Z,95656.28
2023-01-18T09:15:48.020Z,95650.22
2023-01-18T09:18:15.717Z,95668.06
2023-01-18T09:20:43.606Z,95665.19
2023-01-18T09:23:11.766Z,95671.34
2023-01-18T09:25:40.972Z,95679.00
2023-01-18T09:28:08.702Z,95682.81
2023-01-18T09:30:36.910Z,95689.91
2023-01-18T09:33:06.333Z,95687.53
2023-01-18T09:35:34.310Z,95691.19
2023-01-18T09:38:02.007Z,95693.19
2023-01-18T09:40:43.440Z,95692.94
2023-01-18T09:43:18.181Z,95701.34
2023-01-18T09:45:48.261Z,95704.03
2023-01-18T09:48:29.320Z,95713.47
2023-01-18T09:51:02.224Z,95713.91
2023-01-18T09:53:56.101Z,95719.63
2023-01-18T09:56:28.387Z,95729.59
2023-01-18T09:59:08.126Z,95736.06
2023-01-18T10:01:37.287Z,95744.56
2023-01-18T10:04:16.477Z,95747.31
2023-01-18T10:06:49.100Z,95751.91
2023-01-18T10:09:21.419Z,95754.00
2023-01-18T10:11:55.826Z,95762.63
2023-01-18T10:14:33.163Z,95766.34
2023-01-18T10:17:04.123Z,95772.31
2023-01-18T10:19:34.245Z,95771.81
2023-01-18T10:22:07.468Z,95771.81
2023-01-18T10:24:47.065Z,95773.19
2023-01-18T10:27:44.590Z,95773.97
2023-01-18T10:30:29.244Z,95777.78
2023-01-18T10:33:00.216Z,95782.91
2023-01-18T10:35:33.091Z,95790.63
2023-01-18T10:38:05.831Z,95792.97
2023-01-18T10:40:35.407Z,95801.75
2023-01-18T10:43:04.445Z,95795.59
2023-01-18T10:45:35.949Z,95803.47
2023-01-18T10:48:23.185Z,95795.88
2023-01-18T10:50:54.094Z,95805.94
2023-01-18T10:53:28.088Z,95813.31
2023-01-18T10:55:59.348Z,95816.31
2023-01-18T10:58:33.923Z,95815.22
2023-01-18T11:01:03.563Z,95820.81
2023-01-18T11:03:38.207Z,95826.91
2023-01-18T11:06:08.989Z,95833.13
2023-01-18T11:08:37.484Z,95834.41
2023-01-18T11:11:07.741Z,95836.84
2023-01-18T11:13:43.717Z,95845.34
2023-01-18T11:16:18.061Z,95849.94
2023-01-18T11:19:01.545Z,95857.28
2023-01-18T11:21:46.686Z,95854.16
2023-01-18T11:24:17.295Z,95857.03
2023-01-18T11:26:55.361Z,95858.84
2023-01-18T11:29:28.245Z,95860.16
2023-01-18T11:31:56.989Z,95867.34
2023-01-18T11:34:29.676Z,95867.34
2023-01-18T11:37:00.146Z,95874.28
2023-01-18T11:39:33.405Z,95879.56
2023-01-18T11:42:26.867Z,95879.66
2023-01-18T11:45:05.439Z,95879.97
2023-01-18T11:47:43.597Z,95892.38
2023-01-18T11:50:28.261Z,95897.03
2023-01-18T11:53:04.430Z,95898.72
2023-01-18T11:55:36.228Z,95891.00
2023-01-18T11:58:05.240Z,95893.06
2023-01-18T12:00:43.921Z,95904.28
2023-01-18T12:03:35.367Z,95900.59
2023-01-18T12:06:07.097Z,95908.91
2023-01-18T12:08:48.026Z,95911.81
2023-01-18T12:11:31.175Z,95910.25
2023-01-18T12:14:03.465Z,95916.63
2023-01-18T12:16:47.353Z,95923.50
2023-01-18T12:19:37.266Z,95924.44
2023-01-18T12:22:24.327Z,95930.69
2023-01-18T12:25:06.603Z,95934.63
2023-01-18T12:27:45.246Z,95939.88
2023-01-18T12:30:31.754Z,95950.38
2023-01-18T12:33:14.331Z,95954.69
2023-01-18T12:36:15.875Z,95957.38
2023-01-18T12:38:51.508Z,95961.88
2023-01-18T12:41:39.279Z,95968.81
2023-01-18T12:44:22.606Z,95976.34
2023-01-18T12:47:04.715Z,95981.25
2023-01-18T12:49:37.994Z,95990.13
2023-01-18T12:52:18.466Z,95998.41
2023-01-18T12:54:50.004Z,95995.63
2023-01-18T12:57:20.371Z,95996.44
2023-01-18T12:59:53.755Z,96006.50
2023-01-18T13:02:28.710Z,96009.84
2023-01-18T13:05:00.622Z,96012.97
2023-01-18T13:07:34.753Z,96009.38
2023-01-18T13:10:04.168Z,96018.56
2023-01-18T13:12:33.688Z,96022.38
2023-01-18T13:15:08.707Z,96029.31
2023-01-18T13:17:42.470Z,96027.72
2023-01-18T13:20:16.916Z,96029.97
2023-01-18T13:22:53.540Z,96034.91
2023-01-18T13:25:39.449Z,96041.84
2023-01-18T13:28:19.111Z,96040.03
2023-01-18T13:30:53.248Z,96043.63
2023-01-18T13:33:24.003Z,96054.38
2023-01-18T13:35:55.838Z,96058.38
2023-01-18T13:38:40.239Z,96060.44
2023-01-18T13:41:11.488Z,96057.31
2023-01-18T13:44:06.233Z,96062.56
2023-01-18T13:46:39.830Z,96071.63
2023-01-18T13:49:37.986Z,96084.75
2023-01-18T13:52:30.894Z,96094.97
2023-01-18T13:55:05.409Z,96097.84
2023-01-18T13:57:35.261Z,96106.81
2023-01-18T14:00:06.143Z,96108.16
2023-01-18T14:02:41.995Z,96117.56
2023-01-18T14:05:25.134Z,96126.75
2023-01-18T14:07:56.814Z,96126.06
2023-01-18T14:10:30.277Z,96132.34
2023-01-18T14:12:59.778Z,96141.31
2023-01-18T14:15:38.689Z,96139.75
2023-01-18T14:18:17.855Z,96149.06
2023-01-18T14:21:12.501Z,96156.22
2023-01-18T14:24:06.350Z,96164.38
2023-01-18T14:26:37.226Z,96166.53
2023-01-18T14:29:08.228Z,96177.41
2023-01-18T14:31:41.675Z,96176.03
2023-01-18T14:34:26.896Z,96181.88
2023-01-18T14:36:55.108Z,96185.22
2023-01-18T14:39:23.168Z,96200.69
2023-01-18T14:41:55.088Z,96200.94
2023-01-18T14:44:25.161Z,96204.38
2023-01-18T14:46:57.349Z,96209.69
2023-01-18T14:49:27.895Z,96220.44
2023-01-18T14:51:55.759Z,96219.53
2023-01-18T14:54:25.957Z,96233.84
2023-01-18T14:57:01.333Z,96239.22
2023-01-18T14:59:31.097Z,96253.78
2023-01-18T15:02:02.025Z,96256.47
2023-01-18T15:04:31.326Z,96266.56
2023-01-18T15:07:03.664Z,96262.75
2023-01-18T15:09:33.739Z,96265.88
2023-01-18T15:12:04.157Z,96276.19
2023-01-18T15:14:34.630Z,96284.78
2023-01-18T15:17:09.542Z,96294.75
2023-01-18T15:19:41.534Z,96288.47
2023-01-18T15:22:13.905Z,96297.22
2023-01-18T15:24:43.790Z,96294.25
2023-01-18T15:27:14.036Z,96305.66
2023-01-18T15:29:46.946Z,96314.19
2023-01-18T15:32:20.437Z,96320.47
2023-01-18T15:34:50.648Z,96322.94
2023-01-18T15:37:23.298Z,96327.09
2023-01-18T15:39:56.687Z,96329.66
2023-01-18T15:42:27.721Z,96331.09
2023-01-18T15:44:56.736Z,96339.50
2023-01-18T15:47:28.696Z,96339.75
2023-01-18T15:49:58.939Z,96334.38
2023-01-18T15:52:43.949Z,96346.81
2023-01-18T15:55:22.474Z,96348.50
2023-01-18T15:57:58.955Z,96356.78
2023-01-18T16:00:33.227Z,96354.53
2023-01-18T16:03:04.462Z,96359.03
2023-01-18T16:05:32.888Z,96365.94
2023-01-18T16:08:19.061Z,96363.06
2023-01-18T16:10:52.634Z,96364.50
2023-01-18T16:13:39.150Z,96363.63
2023-01-18T16:16:18.231Z,96373.56
2023-01-18T16:18:49.632Z,96383.88
2023-01-18T16:21:25.862Z,96388.13
2023-01-18T16:23:54.508Z,96393.22
2023-01-18T16:26:27.858Z,96400.69
2023-01-18T16:29:05.900Z,96400.84
2023-01-18T16:31:34.730Z,96403.06
2023-01-18T16:34:06.096Z,96410.94
2023-01-18T16:36:41.773Z,96422.16
2023-01-18T16:39:09.959Z,96426.72
2023-01-18T16:41:37.772Z,96426.88
2023-01-18T16:44:05.777Z,96440.63
2023-01-18T16:46:35.670Z,96449.47
2023-01-18T16:49:04.689Z,96454.22
2023-01-18T16:51:32.395Z,96458.00
2023-01-18T16:54:00.156Z,96458.38
2023-01-18T16:56:27.918Z,96465.59
2023-01-18T16:58:55.734Z,96470.53
2023-01-18T17:01:23.573Z,96470.06
2023-01-18T17:03:51.776Z,96475.25
2023-01-18T17:06:22.588Z,96484.41
2023-01-18T17:08:50.531Z,96483.97
2023-01-18T17:11:18.519Z,96492.47
2023-01-18T17:13:47.665Z,96492.63
2023-01-18T17:16:18.531Z,96494.06
2023-01-18T17:18:47.974Z,96499.44
2023-01-18T17:21:15.647Z,96501.84
2023-01-18T17:23:45.334Z,96508.97
2023-01-18T17:26:15.304Z,96515.28
2023-01-18T17:28:43.114Z,96525.38
2023-01-18T17:31:11.553Z,96523.50
2023-01-18T17:33:40.360Z,96526.66
2023-01-18T17:36:09.447Z,96529.81
2023-01-18T17:38:37.405Z,96534.94
2023-01-18T17:41:09.498Z,96525.88
2023-01-18T17:43:39.008Z,96539.78
2023-01-18T17:46:07.771Z,96536.31
2023-01-18T17:48:35.706Z,96549.09
2023-01-18T17:51:07.260Z,96555.75
2023-01-18T17:53:35.349Z,96560.50
2023-01-18T17:56:08.565Z,96576.63
2023-01-18T17:58:36.353Z,96583.31
2023-01-18T18:01:10.316Z,96583.56
2023-01-18T18:03:38.340Z,96588.47
2023-01-18T18:06:06.745Z,96593.38
2023-01-18T18:08:35.352Z,96593.25
2023-01-18T18:11:03.301Z,96592.59
2023-01-18T18:13:32.457Z,96599.44
2023-01-18T18:16:00.377Z,96601.91
2023-01-18T18:18:28.143Z,96606.06
2023-01-18T18:20:58.521Z,96605.44
2023-01-18T18:23:27.009Z,96607.66
2023-01-18T18:25:55.449Z,96614.09
2023-01-18T18:28:24.399Z,96618.56
2023-01-18T18:30:53.790Z,96619.63
2023-01-18T18:33:21.986Z,96632.88
2023-01-18T18:35:51.083Z,96636.38
2023-01-18T18:38:22.571Z,96642.41
2023-01-18T18:40:50.364Z,96638.25
2023-01-18T18:43:18.206Z,96650.75
2023-01-18T18:45:46.710Z,96649.66
2023-01-18T18:48:15.873Z,96644.28
2023-01-18T18:50:43.625Z,96656.09
2023-01-18T18:53:11.256Z,96656.59
2023-01-18T18:55:38.942Z,96667.34
2023-01-18T18:58:06.739Z,96667.03
2023-01-18T19:00:34.393Z,96668.81
2023-01-18T19:03:04.170Z,96675.72
2023-01-18T19:05:35.145Z,96690.91
2023-01-18T19:08:03.972Z,96685.41
2023-01-18T19:10:31.756Z,96697.22
2023-01-18T19:13:00.122Z,96701.50
2023-01-18T19:15:28.446Z,96709.88
2023-01-18T19:17:57.976Z,96710.78
2023-01-18T19:20:25.811Z,96717.88
2023-01-18T19:22:55.047Z,96715.53
2023-01-18T19:25:22.803Z,96721.41
2023-01-18T19:27:50.573Z,96718.25
2023-01-18T19:30:20.137Z,96721.09
2023-01-18T19:32:51.727Z,96731.84
2023-01-18T19:35:20.437Z,96729.94
2023-01-18T19:37:48.769Z,96735.16
2023-01-18T19:40:18.626Z,96741.31
2023-01-18T19:42:54.244Z,96742.28
2023-01-18T19:45:27.868Z,96750.03
2023-01-18T19:47:57.572Z,96753.66
2023-01-18T19:50:25.914Z,96754.94
2023-01-18T19:52:53.785Z,96761.25
2023-01-18T19:55:23.030Z,96762.38
2023-01-18T19:57:52.277Z,96759.03
2023-01-18T20:00:20.968Z,96771.06
2023-01-18T20:02:48.820Z,96766.63
2023-01-18T20:05:16.654Z,96781.81
2023-01-18T20:07:44.375Z,96773.91
2023-01-18T20:10:12.385Z,96776.91
2023-01-18T20:12:41.433Z,96786.75
2023-01-18T20:15:09.625Z,96794.16
2023-01-18T20:17:37.297Z,96793.53
2023-01-18T20:20:05.764Z,96795.75
2023-01-18T20:22:33.444Z,96801.25
2023-01-18T20:25:01.189Z,96802.34
2023-01-18T20:27:29.093Z,96803.00
2023-01-18T20:29:59.081Z,96803.47
2023-01-18T20:32:26.848Z,96809.63
2023-01-18T20:34:54.494Z,96800.94
2023-01-18T20:37:22.314Z,96808.69
2023-01-18T20:39:50.753Z,96811.53
2023-01-18T20:42:19.420Z,96822.28
2023-01-18T20:44:50.250Z,96829.88
2023-01-18T20:47:19.400Z,96830.53
2023-01-18T20:49:47.083Z,96845.19
2023-01-18T20:52:14.955Z,96842.38
2023-01-18T20:54:42.601Z,96845.06
2023-01-18T20:57:10.504Z,96852.66
2023-01-18T20:59:38.304Z,96844.09
2023-01-18T21:02:06.372Z,96849.47
2023-01-18T21:04:35.686Z,96851.22
2023-01-18T21:07:03.342Z,96851.06
2023-01-18T21:09:31.032Z,96853.28
2023-01-18T21:11:59.536Z,96861.66
2023-01-18T21:14:27.303Z,96858.97
2023-01-18T21:16:55.035Z,96858.03
2023-01-18T21:19:22.941Z,96862.91
2023-01-18T21:21:51.950Z,96859.91
2023-01-18T21:24:19.699Z,96854.03
2023-01-18T21:26:47.491Z,96866.56
2023-01-18T21:29:15.220Z,96871.59
2023-01-18T21:31:43.016Z,96868.28
2023-01-18T21:34:10.928Z,96871.44
2023-01-18T21:36:38.668Z,96874.13
2023-01-18T21:39:07.909Z,96874.13
2023-01-18T21:41:53.146Z,96880.91
2023-01-18T21:44:38.344Z,96878.88
2023-01-18T21:47:06.114Z,96886.63
2023-01-18T21:50:15.975Z,96888.03
2023-01-18T21:52:56.846Z,96892.78
2023-01-18T21:55:26.009Z,96897.69
2023-01-18T21:58:07.594Z,96903.03
2023-01-18T22:00:38.228Z,96912.03
2023-01-18T22:03:06.741Z,96923.56
2023-01-18T22:05:34.795Z,96919.59
2023-01-18T22:08:02.759Z,96916.47
2023-01-18T22:10:31.913Z,96927.66
2023-01-18T22:12:59.671Z,96938.69
2023-01-18T22:15:27.393Z,96931.63
2023-01-18T22:17:55.089Z,96937.59
2023-01-18T22:20:22.800Z,96935.06
2023-01-18T22:22:50.504Z,96941.22
2023-01-18T22:25:18.169Z,96946.25
2023-01-18T22:27:47.418Z,96944.19
2023-01-18T22:30:15.188Z,96950.19
2023-01-18T22:32:42.910Z,96960.41
2023-01-18T22:35:10.856Z,96964.03
2023-01-18T22:37:38.676Z,96960.91
2023-01-18T22:40:07.921Z,96964.69
2023-01-18T22:42:35.907Z,96972.25
2023-01-18T22:45:05.986Z,96963.97
2023-01-18T22:47:33.693Z,96969.81
2023-01-18T22:50:01.443Z,96971.19
2023-01-18T22:52:29.300Z,96987.28
2023-01-18T22:54:57.123Z,96982.53
2023-01-18T22:57:24.994Z,96983.16
2023-01-18T22:59:53.044Z,96989.47
2023-01-18T23:02:22.209Z,96988.19
2023-01-18T23:04:49.960Z,96992.75
2023-01-18T23:07:17.700Z,96990.38
2023-01-18T23:09:45.482Z,96993.97
2023-01-18T23:12:13.177Z,96992.81
2023-01-18T23:14:58.725Z,96998.66
2023-01-18T23:17:40.108Z,97000.97
2023-01-18T23:20:10.308Z,97002.63
2023-01-18T23:22:38.074Z,97007.56
2023-01-18T23:25:06.768Z,97008.53
2023-01-18T23:27:34.518Z,97008.59
2023-01-18T23:30:02.526Z,97009.53
2023-01-18T23:32:31.724Z,97010.72
2023-01-18T23:35:00.211Z,97020.47
2023-01-18T23:37:28.374Z,97016.84
2023-01-18T23:40:13.612Z,97013.03
2023-01-18T23:42:58.916Z,97011.63
2023-01-18T23:45:44.401Z,97022.66
2023-01-18T23:48:33.132Z,97019.13
2023-01-18T23:51:18.458Z,97021.91
2023-01-18T23:54:04.026Z,97022.66
2023-01-18T23:56:32.012Z,97027.88
2023-01-18T23:58:59.778Z,97026.28
